Shin Puropan Maru — JG5508 — position and weather

sailwx.info

Track history (hours):
 
Tides and Currents Weather Stations Pressure Air Temp Water Temp Dewpoint Dewpoint Depression Visibility Wind Speed Wind Dir Waves Ship Positions

Shin Puropan Maru

Last reported at 2015-Jan-30 11:32 UTC. Time now 2015-Jan-30 12:32 UTC.
Position N 34°32' E 135°21'.

Length 66 m; draft 3.6 m.

Type: Ship (hazmat cat A). MMSI: 431100348.

Date/timePositionNaut miles runAvg speedWind from/ knotsBaromVisibWave heightAir tempDewpointWater temp
2015-Jan-30 11:32N 34°32' E 135°21'0 0.0
2015-Jan-30 10:14N 34°32' E 135°21'2 2.2
2015-Jan-30 09:33N 34°33' E 135°21'4 4.2
2015-Jan-30 08:33N 34°34' E 135°26'0 0.0
2015-Jan-30 05:22N 34°34' E 135°26'2 2.7
2015-Jan-30 04:33N 34°36' E 135°24'3 2.8
2015-Jan-30 03:33N 34°35' E 135°21'9 8.9
2015-Jan-30 02:33N 34°29' E 135°13'1211.3
2015-Jan-30 01:30N 34°21' E 135°03'1010.3
2015-Jan-30 00:33N 34°11' E 134°60'5 0.1
2015-Jan-28 09:29N 34°06' E 134°60'2311.9
2015-Jan-28 07:32N 34°28' E 135°10'1313.2
2015-Jan-28 06:33N 34°36' E 135°22'4 1.1
2015-Jan-28 03:14N 34°34' E 135°26'2 3.5
2015-Jan-28 02:33N 34°36' E 135°24'1 1.0
2015-Jan-28 01:33N 34°36' E 135°23'0 0.0
2015-Jan-28 00:29N 34°36' E 135°23'2 1.9
2015-Jan-27 23:32N 34°35' E 135°21'1111.4
2015-Jan-27 22:33N 34°27' E 135°11'1211.0
2015-Jan-27 21:29N 34°19' E 135°01'1010.5
2015-Jan-27 20:33N 34°09' E 134°60'  
2015-Jan-25 12:07N 34°09' E 134°59'813.4
2015-Jan-25 11:30N 34°17' E 134°58'1212.8
2015-Jan-25 10:34N 34°27' E 135°08'1312.8
2015-Jan-25 09:34N 34°35' E 135°20'5 3.4
2015-Jan-25 08:12N 34°34' E 135°26'0 0.0
2015-Jan-25 07:30N 34°34' E 135°26'1 0.3
2015-Jan-25 05:29N 34°35' E 135°25'2 1.8
2015-Jan-25 04:32N 34°33' E 135°26'0 0.0
2015-Jan-25 00:12N 34°33' E 135°26'2 2.8
2015-Jan-24 23:33N 34°33' E 135°24'4 3.5
2015-Jan-24 22:30N 34°32' E 135°20'0 0.1
2015-Jan-24 21:30N 34°32' E 135°20'0 0.0
2015-Jan-24 20:30N 34°32' E 135°20'0 0.0
2015-Jan-24 19:30N 34°32' E 135°20'0 0.0
2015-Jan-24 18:30N 34°32' E 135°20'0 0.0
2015-Jan-24 17:06N 34°32' E 135°20'0 0.0
2015-Jan-24 16:24N 34°32' E 135°20'0 0.0
2015-Jan-24 15:12N 34°32' E 135°20'0 0.0
2015-Jan-24 14:30N 34°32' E 135°20'0 0.0
2015-Jan-24 13:30N 34°32' E 135°20'0 0.0
2015-Jan-24 12:12N 34°32' E 135°20'0 0.0
2015-Jan-24 11:18N 34°32' E 135°20'0 0.0
2015-Jan-24 09:33N 34°32' E 135°20'0 0.0
2015-Jan-24 08:33N 34°32' E 135°20'5 4.6
2015-Jan-24 07:33N 34°36' E 135°22'3 1.0
2015-Jan-24 04:10N 34°34' E 135°26'0 0.5
2015-Jan-24 03:32N 34°35' E 135°25'1 1.4
2015-Jan-24 02:33N 34°33' E 135°25'0 0.1
2015-Jan-23 23:26N 34°34' E 135°25'2 2.1
2015-Jan-23 22:33N 34°34' E 135°23'0 0.0
2015-Jan-23 20:23N 34°34' E 135°23'0 0.0
2015-Jan-23 19:29N 34°34' E 135°23'0 0.0
2015-Jan-23 18:29N 34°34' E 135°23'0 0.0
2015-Jan-23 17:29N 34°34' E 135°23'0 0.0
2015-Jan-23 15:29N 34°34' E 135°23'0 0.0
2015-Jan-23 14:17N 34°34' E 135°23'0 0.0
2015-Jan-23 13:17N 34°34' E 135°23'0 0.0
2015-Jan-23 12:29N 34°34' E 135°23'0 0.0
2015-Jan-23 11:29N 34°34' E 135°23'0 0.0
2015-Jan-23 10:23N 34°34' E 135°23'0 0.1
2015-Jan-23 09:29N 34°34' E 135°23'0 0.0
2015-Jan-23 07:32N 34°34' E 135°23'3 2.8
2015-Jan-23 06:32N 34°35' E 135°20'5 1.2
2015-Jan-23 02:32N 34°34' E 135°26'4 3.6
2015-Jan-23 01:33N 34°35' E 135°21'8 7.7
2015-Jan-23 00:33N 34°30' E 135°15'1211.8
2015-Jan-22 23:32N 34°22' E 135°04'1111.2
2015-Jan-22 22:33N 34°11' E 134°60'7 0.2
2015-Jan-21 05:07N 34°04' E 134°59'712.9
2015-Jan-21 04:33N 34°12' E 134°59'1512.1
2015-Jan-21 03:16N 34°26' E 135°07'912.8
2015-Jan-21 02:33N 34°31' E 135°16'9 8.8
2015-Jan-21 01:33N 34°34' E 135°26'0 0.2
2015-Jan-20 22:33N 34°35' E 135°25'2 1.7
2015-Jan-20 21:14N 34°36' E 135°23'0 0.1
2015-Jan-20 20:32N 34°36' E 135°23'0 0.0
2015-Jan-20 19:32N 34°36' E 135°23'0 0.0
2015-Jan-20 18:26N 34°36' E 135°23'0 0.0
2015-Jan-20 17:32N 34°36' E 135°23'0 0.0
2015-Jan-20 16:14N 34°36' E 135°23'0 0.0
2015-Jan-20 15:32N 34°36' E 135°23'0 0.0
2015-Jan-20 14:26N 34°36' E 135°23'0 0.0
2015-Jan-20 13:26N 34°36' E 135°23'7 7.7
2015-Jan-20 12:33N 34°31' E 135°16'1211.4
2015-Jan-20 11:32N 34°23' E 135°06'  
Track history (hours):
 
Tides and Currents Weather Stations Pressure Air Temp Water Temp Dewpoint Dewpoint Depression Visibility Wind Speed Wind Dir Waves Ship Positions

Shin Puropan Maru

Last reported at 2015-Jan-30 11:32 UTC. Time now 2015-Jan-30 12:33 UTC.
Position N 34°32' E 135°21'.

Length 66 m; draft 3.6 m.

Type: Ship (hazmat cat A). MMSI: 431100348.

Date/timePositionNaut miles runAvg speedWind from/ knotsBaromVisibWave heightAir tempDewpointWater temp
2015-Jan-30 11:32N 34°32' E 135°21'0 0.0
2015-Jan-30 10:14N 34°32' E 135°21'2 2.2
2015-Jan-30 09:33N 34°33' E 135°21'4 4.2
2015-Jan-30 08:33N 34°34' E 135°26'0 0.0
2015-Jan-30 05:22N 34°34' E 135°26'2 2.7
2015-Jan-30 04:33N 34°36' E 135°24'3 2.8
2015-Jan-30 03:33N 34°35' E 135°21'9 8.9
2015-Jan-30 02:33N 34°29' E 135°13'1211.3
2015-Jan-30 01:30N 34°21' E 135°03'1010.3
2015-Jan-30 00:33N 34°11' E 134°60'5 0.1
2015-Jan-28 09:29N 34°06' E 134°60'2311.9
2015-Jan-28 07:32N 34°28' E 135°10'1313.2
2015-Jan-28 06:33N 34°36' E 135°22'4 1.1
2015-Jan-28 03:14N 34°34' E 135°26'2 3.5
2015-Jan-28 02:33N 34°36' E 135°24'1 1.0
2015-Jan-28 01:33N 34°36' E 135°23'0 0.0
2015-Jan-28 00:29N 34°36' E 135°23'2 1.9
2015-Jan-27 23:32N 34°35' E 135°21'1111.4
2015-Jan-27 22:33N 34°27' E 135°11'1211.0
2015-Jan-27 21:29N 34°19' E 135°01'1010.5
2015-Jan-27 20:33N 34°09' E 134°60'  
2015-Jan-25 12:07N 34°09' E 134°59'813.4
2015-Jan-25 11:30N 34°17' E 134°58'1212.8
2015-Jan-25 10:34N 34°27' E 135°08'1312.8
2015-Jan-25 09:34N 34°35' E 135°20'5 3.4
2015-Jan-25 08:12N 34°34' E 135°26'0 0.0
2015-Jan-25 07:30N 34°34' E 135°26'1 0.3
2015-Jan-25 05:29N 34°35' E 135°25'2 1.8
2015-Jan-25 04:32N 34°33' E 135°26'0 0.0
2015-Jan-25 00:12N 34°33' E 135°26'2 2.8
2015-Jan-24 23:33N 34°33' E 135°24'4 3.5
2015-Jan-24 22:30N 34°32' E 135°20'0 0.1
2015-Jan-24 21:30N 34°32' E 135°20'0 0.0
2015-Jan-24 20:30N 34°32' E 135°20'0 0.0
2015-Jan-24 19:30N 34°32' E 135°20'0 0.0
2015-Jan-24 18:30N 34°32' E 135°20'0 0.0
2015-Jan-24 17:06N 34°32' E 135°20'0 0.0
2015-Jan-24 16:24N 34°32' E 135°20'0 0.0
2015-Jan-24 15:12N 34°32' E 135°20'0 0.0
2015-Jan-24 14:30N 34°32' E 135°20'0 0.0
2015-Jan-24 13:30N 34°32' E 135°20'0 0.0
2015-Jan-24 12:12N 34°32' E 135°20'0 0.0
2015-Jan-24 11:18N 34°32' E 135°20'0 0.0
2015-Jan-24 09:33N 34°32' E 135°20'0 0.0
2015-Jan-24 08:33N 34°32' E 135°20'5 4.6
2015-Jan-24 07:33N 34°36' E 135°22'3 1.0
2015-Jan-24 04:10N 34°34' E 135°26'0 0.5
2015-Jan-24 03:32N 34°35' E 135°25'1 1.4
2015-Jan-24 02:33N 34°33' E 135°25'0 0.1
2015-Jan-23 23:26N 34°34' E 135°25'2 2.1
2015-Jan-23 22:33N 34°34' E 135°23'0 0.0
2015-Jan-23 20:23N 34°34' E 135°23'0 0.0
2015-Jan-23 19:29N 34°34' E 135°23'0 0.0
2015-Jan-23 18:29N 34°34' E 135°23'0 0.0
2015-Jan-23 17:29N 34°34' E 135°23'0 0.0
2015-Jan-23 15:29N 34°34' E 135°23'0 0.0
2015-Jan-23 14:17N 34°34' E 135°23'0 0.0
2015-Jan-23 13:17N 34°34' E 135°23'0 0.0
2015-Jan-23 12:29N 34°34' E 135°23'0 0.0
2015-Jan-23 11:29N 34°34' E 135°23'0 0.0
2015-Jan-23 10:23N 34°34' E 135°23'0 0.1
2015-Jan-23 09:29N 34°34' E 135°23'0 0.0
2015-Jan-23 07:32N 34°34' E 135°23'3 2.8
2015-Jan-23 06:32N 34°35' E 135°20'5 1.2
2015-Jan-23 02:32N 34°34' E 135°26'4 3.6
2015-Jan-23 01:33N 34°35' E 135°21'8 7.7
2015-Jan-23 00:33N 34°30' E 135°15'1211.8
2015-Jan-22 23:32N 34°22' E 135°04'1111.2
2015-Jan-22 22:33N 34°11' E 134°60'7 0.2
2015-Jan-21 05:07N 34°04' E 134°59'712.9
2015-Jan-21 04:33N 34°12' E 134°59'1512.1
2015-Jan-21 03:16N 34°26' E 135°07'912.8
2015-Jan-21 02:33N 34°31' E 135°16'9 8.8
2015-Jan-21 01:33N 34°34' E 135°26'0 0.2
2015-Jan-20 22:33N 34°35' E 135°25'2 1.7
2015-Jan-20 21:14N 34°36' E 135°23'0 0.1
2015-Jan-20 20:32N 34°36' E 135°23'0 0.0
2015-Jan-20 19:32N 34°36' E 135°23'0 0.0
2015-Jan-20 18:26N 34°36' E 135°23'0 0.0
2015-Jan-20 17:32N 34°36' E 135°23'0 0.0
2015-Jan-20 16:14N 34°36' E 135°23'0 0.0
2015-Jan-20 15:32N 34°36' E 135°23'0 0.0
2015-Jan-20 14:26N 34°36' E 135°23'0 0.0
2015-Jan-20 13:26N 34°36' E 135°23'7 7.7
2015-Jan-20 12:33N 34°31' E 135°16'1211.4
2015-Jan-20 11:32N 34°23' E 135°06'  

Dump ship's entire track history